Time;durP1;ratioP1;P1;durP2;ratioP2;P2;SDS_P1;SDS_P2;PMS_P1;PMS_P2;Temp;Humidity;BMP_temperature;BMP_pressure;BME280_temperature;BME280_humidity;BME280_pressure;Samples;Min_cycle;Max_cycle;Signal;HPM_P1;HPM_P2
2021/11/04 00:00:08;;;;;;;6.03;5.00;;;13.10;75.90;;;;;;5036735;28;20037;-89
2021/11/04 00:02:38;;;;;;;5.75;4.95;;;13.10;76.00;;;;;;5067970;28;20041;-85
2021/11/04 00:05:06;;;;;;;5.60;4.82;;;13.10;76.00;;;;;;5019957;28;20107;-88
2021/11/04 00:07:33;;;;;;;5.82;5.00;;;13.10;76.00;;;;;;5038618;28;20559;-89
2021/11/04 00:09:59;;;;;;;6.57;4.88;;;13.10;76.10;;;;;;5038477;28;20094;-86
2021/11/04 00:12:25;;;;;;;6.22;4.38;;;13.10;76.10;;;;;;5040341;28;20033;-87
2021/11/04 00:14:51;;;;;;;4.97;4.28;;;13.10;76.10;;;;;;5041602;28;20032;-88
2021/11/04 00:17:17;;;;;;;5.63;4.72;;;13.10;76.10;;;;;;5039040;28;20384;-86
2021/11/04 00:19:43;;;;;;;5.50;4.53;;;13.10;76.10;;;;;;5038425;28;20079;-87
2021/11/04 00:22:10;;;;;;;4.72;3.78;;;13.10;76.10;;;;;;5038597;28;20084;-86
2021/11/04 00:24:36;;;;;;;5.93;4.40;;;13.10;76.10;;;;;;5036518;28;20038;-85
2021/11/04 00:27:02;;;;;;;4.40;3.75;;;13.10;76.10;;;;;;5037181;28;20032;-88
2021/11/04 00:29:29;;;;;;;5.22;3.60;;;13.10;76.10;;;;;;5037288;28;20061;-88
2021/11/04 00:31:55;;;;;;;3.95;3.17;;;13.10;76.10;;;;;;5037971;28;20385;-87
2021/11/04 00:34:21;;;;;;;3.92;3.42;;;13.10;76.10;;;;;;5037014;28;20094;-88
2021/11/04 00:36:48;;;;;;;4.20;3.38;;;13.10;76.10;;;;;;5036098;28;20119;-89
2021/11/04 00:39:15;;;;;;;3.53;3.20;;;13.10;76.10;;;;;;5037772;28;20037;-90
2021/11/04 00:41:41;;;;;;;3.40;3.10;;;13.10;76.10;;;;;;5023512;28;20723;-88
2021/11/04 00:44:07;;;;;;;4.15;3.20;;;13.10;76.20;;;;;;5037955;28;20034;-91
2021/11/04 00:46:33;;;;;;;3.42;3.13;;;13.10;76.20;;;;;;5039035;28;20029;-89
2021/11/04 00:48:59;;;;;;;3.30;3.00;;;13.10;76.20;;;;;;5037089;28;20040;-88
2021/11/04 00:51:25;;;;;;;3.42;3.08;;;13.10;76.20;;;;;;5037014;28;20409;-88
2021/11/04 00:53:52;;;;;;;3.47;3.17;;;13.10;76.20;;;;;;5037963;28;20038;-88
2021/11/04 00:56:18;;;;;;;4.80;3.40;;;13.10;76.20;;;;;;5037161;28;20874;-88
2021/11/04 00:58:44;;;;;;;3.28;2.95;;;13.10;76.10;;;;;;5036521;28;20037;-89
2021/11/04 01:01:10;;;;;;;4.30;3.58;;;13.10;76.20;;;;;;5036999;28;20111;-88
2021/11/04 01:03:36;;;;;;;3.33;3.00;;;13.10;76.10;;;;;;5037456;28;20492;-87
2021/11/04 01:06:02;;;;;;;4.10;3.35;;;13.10;76.20;;;;;;5027083;28;20037;-91
2021/11/04 01:08:28;;;;;;;3.25;3.03;;;13.10;76.20;;;;;;5019102;28;20366;-90
2021/11/04 01:10:54;;;;;;;3.45;3.15;;;13.10;76.20;;;;;;5037356;28;20032;-87
2021/11/04 01:13:20;;;;;;;4.43;3.92;;;13.10;76.30;;;;;;5034908;28;20067;-84
2021/11/04 01:15:46;;;;;;;4.07;3.58;;;13.10;76.20;;;;;;5036677;28;20034;-88
2021/11/04 01:18:12;;;;;;;3.95;3.45;;;13.10;76.20;;;;;;5037280;28;20478;-88
2021/11/04 01:20:38;;;;;;;4.63;3.53;;;13.10;76.30;;;;;;5039436;28;20033;-87
2021/11/04 01:23:03;;;;;;;5.45;3.45;;;13.10;76.30;;;;;;5035981;28;20049;-87
2021/11/04 01:25:31;;;;;;;4.88;3.80;;;13.10;76.20;;;;;;5038599;28;20099;-89
2021/11/04 01:27:57;;;;;;;4.40;3.60;;;13.10;76.30;;;;;;5036967;28;20183;-87
2021/11/04 01:30:23;;;;;;;7.05;3.83;;;13.10;76.30;;;;;;5034844;28;20112;-89
2021/11/04 01:32:49;;;;;;;4.22;3.80;;;13.10;76.40;;;;;;5035402;28;20029;-86
2021/11/04 01:35:15;;;;;;;3.90;3.50;;;13.10;76.40;;;;;;5036528;28;20045;-88
2021/11/04 01:37:40;;;;;;;4.32;3.65;;;13.10;76.40;;;;;;5036197;28;20071;-86
2021/11/04 01:40:07;;;;;;;4.57;3.47;;;13.10;76.40;;;;;;5036627;28;20408;-87
2021/11/04 01:42:35;;;;;;;4.50;4.10;;;13.10;76.40;;;;;;5034942;28;20029;-87
2021/11/04 01:45:01;;;;;;;4.85;4.13;;;13.10;76.40;;;;;;5036618;28;20032;-85
2021/11/04 01:47:27;;;;;;;4.68;4.00;;;13.10;76.50;;;;;;5036893;28;20464;-85
2021/11/04 01:49:52;;;;;;;4.97;4.45;;;13.10;76.40;;;;;;5036129;28;20033;-83
2021/11/04 01:52:18;;;;;;;4.90;4.40;;;13.10;76.50;;;;;;5036235;28;20029;-87
2021/11/04 01:54:44;;;;;;;4.50;4.10;;;13.10;76.50;;;;;;5035092;28;20036;-83
2021/11/04 01:57:11;;;;;;;6.15;4.60;;;13.10;76.50;;;;;;5034849;28;20039;-87
2021/11/04 01:59:37;;;;;;;4.68;3.95;;;13.10;76.60;;;;;;5035755;28;20037;-85
2021/11/04 02:02:08;;;;;;;4.32;3.92;;;13.10;76.60;;;;;;5068228;28;20094;-89
2021/11/04 02:04:57;;;;;;;5.32;4.10;;;13.10;76.60;;;;;;5035337;28;20044;-88
2021/11/04 02:07:45;;;;;;;4.47;3.90;;;13.10;76.70;;;;;;5036016;28;20033;-87
2021/11/04 02:10:19;;;;;;;4.90;4.30;;;13.10;76.70;;;;;;5036072;28;20035;-87
2021/11/04 02:13:17;;;;;;;4.88;4.03;;;13.10;76.80;;;;;;5034190;28;20063;-83
2021/11/04 02:15:46;;;;;;;5.80;4.30;;;13.10;76.80;;;;;;5026956;28;20033;-88
2021/11/04 02:18:14;;;;;;;5.15;4.05;;;13.10;76.90;;;;;;5036079;28;20044;-88
2021/11/04 02:20:43;;;;;;;5.15;3.97;;;13.00;76.80;;;;;;5034909;28;20037;-88
2021/11/04 02:23:26;;;;;;;4.80;4.28;;;13.00;76.80;;;;;;5034476;28;20080;-84
2021/11/04 02:25:53;;;;;;;4.30;3.90;;;13.10;76.90;;;;;;5034719;28;20030;-87
2021/11/04 02:28:19;;;;;;;4.70;4.30;;;13.10;77.00;;;;;;5031289;28;20025;-87
2021/11/04 02:30:47;;;;;;;5.43;4.55;;;13.10;77.00;;;;;;5036849;28;20529;-84
2021/11/04 02:33:19;;;;;;;4.53;4.13;;;13.10;77.00;;;;;;5036958;28;20040;-86
2021/11/04 02:35:51;;;;;;;4.10;3.78;;;13.10;77.00;;;;;;5037770;28;20037;-82
2021/11/04 02:38:22;;;;;;;5.30;4.80;;;13.10;77.10;;;;;;5041373;28;20052;-88
2021/11/04 02:40:51;;;;;;;5.45;4.30;;;13.10;77.20;;;;;;5035484;28;20044;-87
2021/11/04 02:43:18;;;;;;;4.75;4.25;;;13.10;77.20;;;;;;5036760;28;20042;-87
2021/11/04 02:45:45;;;;;;;6.30;4.32;;;13.10;77.20;;;;;;5035893;28;20803;-85
2021/11/04 02:48:11;;;;;;;5.30;4.72;;;13.10;77.20;;;;;;5035356;28;20365;-86
2021/11/04 02:50:37;;;;;;;5.53;4.80;;;13.10;77.30;;;;;;5036912;28;20079;-87
2021/11/04 02:53:03;;;;;;;4.95;4.38;;;13.10;77.30;;;;;;5034526;28;20121;-87
2021/11/04 02:55:34;;;;;;;5.63;4.60;;;13.10;77.30;;;;;;5034870;28;20112;-87
2021/11/04 02:58:05;;;;;;;5.25;4.70;;;13.10;77.40;;;;;;5036348;28;20037;-89
2021/11/04 03:00:31;;;;;;;5.75;5.18;;;13.20;77.40;;;;;;5035924;28;20040;-87
2021/11/04 03:02:57;;;;;;;6.18;5.57;;;13.20;77.60;;;;;;5017405;28;20037;-88
2021/11/04 03:05:23;;;;;;;4.97;4.57;;;13.20;77.60;;;;;;5035901;28;20128;-89
2021/11/04 03:07:49;;;;;;;6.03;5.43;;;13.10;77.50;;;;;;5036042;28;20040;-86
2021/11/04 03:10:15;;;;;;;6.70;5.68;;;13.20;77.70;;;;;;5036920;28;20029;-88
2021/11/04 03:12:41;;;;;;;6.82;5.80;;;13.20;77.70;;;;;;5034923;28;20037;-85
2021/11/04 03:15:09;;;;;;;8.38;5.88;;;13.20;77.70;;;;;;5035647;28;20033;-83
2021/11/04 03:17:38;;;;;;;7.05;5.93;;;13.20;77.80;;;;;;5034558;28;20065;-88
2021/11/04 03:20:06;;;;;;;9.05;6.13;;;13.20;77.90;;;;;;5035990;28;20029;-90
2021/11/04 03:22:32;;;;;;;9.15;6.57;;;13.20;77.80;;;;;;5021155;28;20512;-89
2021/11/04 03:24:58;;;;;;;7.65;6.03;;;13.20;77.80;;;;;;5035032;28;20099;-87
2021/11/04 03:27:25;;;;;;;11.95;7.10;;;13.20;77.90;;;;;;5032336;28;20022;-88
2021/11/04 03:29:52;;;;;;;8.20;6.90;;;13.20;78.00;;;;;;5036296;28;20029;-86
2021/11/04 03:32:21;;;;;;;7.95;6.28;;;13.20;77.90;;;;;;5022884;28;20488;-86
2021/11/04 03:34:48;;;;;;;7.72;5.80;;;13.20;77.90;;;;;;5034239;28;20032;-84
2021/11/04 03:37:16;;;;;;;8.40;6.70;;;13.20;78.10;;;;;;5035389;28;20464;-88
2021/11/04 03:39:43;;;;;;;8.13;6.68;;;13.20;78.10;;;;;;5037843;28;20041;-86
2021/11/04 03:42:12;;;;;;;9.07;7.22;;;13.30;78.20;;;;;;5038660;28;20049;-85
2021/11/04 03:44:40;;;;;;;9.32;6.93;;;13.20;78.10;;;;;;5039780;28;20119;-85
2021/11/04 03:47:08;;;;;;;10.07;7.28;;;13.20;78.10;;;;;;5039153;28;20419;-87
2021/11/04 03:49:34;;;;;;;10.38;7.35;;;13.20;78.30;;;;;;5044286;28;20447;-86
2021/11/04 03:52:00;;;;;;;10.35;7.40;;;13.30;78.30;;;;;;5037531;28;20044;-87
2021/11/04 03:54:27;;;;;;;12.10;7.05;;;13.20;78.30;;;;;;5037378;28;20094;-85
2021/11/04 03:56:55;;;;;;;9.43;7.53;;;13.30;78.30;;;;;;5038830;28;20053;-86
2021/11/04 03:59:22;;;;;;;8.10;6.95;;;13.30;78.30;;;;;;5037720;28;20029;-85
2021/11/04 04:01:49;;;;;;;9.43;7.28;;;13.30;78.30;;;;;;5034765;28;20037;-84
2021/11/04 04:04:15;;;;;;;8.85;7.30;;;13.20;78.30;;;;;;5038242;28;20465;-88
2021/11/04 04:06:42;;;;;;;13.07;7.28;;;13.30;78.40;;;;;;5038380;28;20057;-86
2021/11/04 04:09:09;;;;;;;8.95;7.70;;;13.20;78.40;;;;;;5037600;28;20079;-88
2021/11/04 04:11:36;;;;;;;11.40;7.78;;;13.30;78.30;;;;;;5037457;28;20196;-88
2021/11/04 04:14:02;;;;;;;9.38;7.10;;;13.30;78.50;;;;;;5033630;28;20032;-88
2021/11/04 04:16:28;;;;;;;10.02;7.10;;;13.30;78.50;;;;;;5038747;28;20038;-91
2021/11/04 04:18:54;;;;;;;9.55;7.13;;;13.30;78.50;;;;;;5038433;28;20029;-87
2021/11/04 04:21:20;;;;;;;9.05;7.53;;;13.30;78.40;;;;;;5037354;28;20558;-89
2021/11/04 04:23:46;;;;;;;13.43;6.88;;;13.30;78.30;;;;;;5038491;28;20061;-84
2021/11/04 04:26:12;;;;;;;8.73;6.97;;;13.30;78.40;;;;;;5037819;28;20120;-90
2021/11/04 04:28:38;;;;;;;10.52;6.90;;;13.30;78.30;;;;;;5035334;28;20041;-84
2021/11/04 04:31:04;;;;;;;10.57;6.93;;;13.30;78.30;;;;;;5038038;28;20036;-91
2021/11/04 04:33:30;;;;;;;8.00;6.72;;;13.30;78.20;;;;;;5037912;28;20024;-88
2021/11/04 04:35:56;;;;;;;9.55;6.57;;;13.30;78.20;;;;;;5039751;28;20387;-93
2021/11/04 04:38:23;;;;;;;15.23;6.88;;;13.30;78.20;;;;;;5039599;28;20091;-90
2021/11/04 04:40:49;;;;;;;8.98;6.80;;;13.30;78.10;;;;;;5037013;28;20060;-90
2021/11/04 04:43:15;;;;;;;7.93;6.55;;;13.30;78.10;;;;;;5036256;28;20041;-91
2021/11/04 04:45:43;;;;;;;9.73;6.88;;;13.30;78.20;;;;;;5038149;28;20484;-89
2021/11/04 04:48:10;;;;;;;8.60;6.85;;;13.30;78.00;;;;;;5037586;28;20087;-89
2021/11/04 04:50:40;;;;;;;9.75;6.43;;;13.30;77.90;;;;;;5037639;28;20071;-93
2021/11/04 04:53:07;;;;;;;8.10;6.53;;;13.30;77.90;;;;;;5040372;28;20033;-87
2021/11/04 04:55:33;;;;;;;10.45;6.85;;;13.40;78.00;;;;;;5035465;28;20087;-85
2021/11/04 04:57:59;;;;;;;7.18;6.15;;;13.40;78.00;;;;;;5033626;28;20041;-91
2021/11/04 05:00:25;;;;;;;8.82;6.55;;;13.30;77.90;;;;;;5036080;28;20685;-87
2021/11/04 05:02:52;;;;;;;7.55;6.63;;;13.30;77.90;;;;;;5038130;28;20115;-92
2021/11/04 05:05:18;;;;;;;9.15;6.53;;;13.40;77.90;;;;;;5034597;28;20035;-92
2021/11/04 05:07:44;;;;;;;10.10;6.95;;;13.40;77.90;;;;;;5032761;28;20120;-92
2021/11/04 05:10:11;;;;;;;9.27;6.47;;;13.30;77.80;;;;;;5034375;28;20068;-90
2021/11/04 05:12:37;;;;;;;8.90;7.00;;;13.40;77.70;;;;;;5033997;28;20029;-90
2021/11/04 05:15:05;;;;;;;11.00;7.75;;;13.40;77.80;;;;;;5032887;28;20052;-91
2021/11/04 05:17:31;;;;;;;9.88;7.40;;;13.40;77.70;;;;;;5033062;28;20064;-88
2021/11/04 05:19:57;;;;;;;9.07;6.72;;;13.40;77.60;;;;;;5033590;28;20496;-90
2021/11/04 05:22:23;;;;;;;10.23;7.65;;;13.40;77.70;;;;;;5032112;28;20049;-84
2021/11/04 05:24:49;;;;;;;10.45;7.03;;;13.40;77.70;;;;;;5033623;28;20476;-87
2021/11/04 05:27:15;;;;;;;10.10;7.38;;;13.40;77.70;;;;;;5035483;28;20033;-89
2021/11/04 05:29:41;;;;;;;10.68;7.15;;;13.40;77.70;;;;;;5033207;28;20033;-89
2021/11/04 05:32:07;;;;;;;9.98;6.90;;;13.40;77.50;;;;;;5032564;28;20036;-87
2021/11/04 05:34:35;;;;;;;10.73;6.50;;;13.40;77.60;;;;;;5038757;28;20033;-89
2021/11/04 05:37:01;;;;;;;12.15;7.18;;;13.40;77.50;;;;;;5036837;28;20068;-88
2021/11/04 05:39:27;;;;;;;10.80;7.28;;;13.40;77.40;;;;;;5041762;28;20064;-84
2021/11/04 05:41:53;;;;;;;11.48;7.60;;;13.40;77.50;;;;;;5056515;28;20063;-82
2021/11/04 05:44:19;;;;;;;10.05;7.03;;;13.40;77.30;;;;;;5061082;28;20056;-85
2021/11/04 05:46:44;;;;;;;10.18;7.35;;;13.40;77.30;;;;;;5055560;28;20170;-86
2021/11/04 05:49:10;;;;;;;10.68;7.28;;;13.40;77.20;;;;;;5051719;28;20037;-87
2021/11/04 05:51:36;;;;;;;11.82;8.27;;;13.40;77.10;;;;;;5044983;28;20461;-87
2021/11/04 05:54:02;;;;;;;11.93;8.27;;;13.50;77.00;;;;;;5050698;28;20056;-85
2021/11/04 05:56:28;;;;;;;9.52;7.60;;;13.50;77.00;;;;;;5056960;28;20062;-80
2021/11/04 05:58:54;;;;;;;10.05;7.20;;;13.40;76.90;;;;;;5058530;28;20039;-82
2021/11/04 06:01:21;;;;;;;11.05;8.43;;;13.50;76.80;;;;;;5043563;28;20102;-89
2021/11/04 06:03:47;;;;;;;10.30;7.50;;;13.50;76.80;;;;;;5037423;28;20494;-85
2021/11/04 06:06:13;;;;;;;13.80;8.18;;;13.50;76.80;;;;;;5025619;28;20028;-88
2021/11/04 06:08:39;;;;;;;10.52;7.68;;;13.50;76.70;;;;;;5040931;28;20044;-86
2021/11/04 06:11:05;;;;;;;10.95;8.40;;;13.50;76.90;;;;;;5037166;28;20039;-88
2021/11/04 06:13:30;;;;;;;10.68;8.15;;;13.50;76.50;;;;;;5037496;28;20025;-87
2021/11/04 06:15:56;;;;;;;10.45;8.05;;;13.50;76.60;;;;;;5033551;28;20033;-86
2021/11/04 06:18:22;;;;;;;12.15;8.43;;;13.50;76.40;;;;;;5032032;28;20033;-88
2021/11/04 06:20:48;;;;;;;14.13;9.30;;;13.50;76.50;;;;;;5032067;28;20039;-88
2021/11/04 06:23:14;;;;;;;10.90;8.10;;;13.50;76.40;;;;;;5032144;28;20061;-89
2021/11/04 06:25:40;;;;;;;14.43;9.38;;;13.50;76.30;;;;;;5031048;28;20034;-88
2021/11/04 06:28:06;;;;;;;10.95;7.68;;;13.50;76.30;;;;;;5031809;28;20041;-84
2021/11/04 06:30:32;;;;;;;11.57;8.52;;;13.50;76.30;;;;;;5033990;28;20091;-89
2021/11/04 06:32:57;;;;;;;11.93;8.25;;;13.50;76.20;;;;;;5030396;28;20460;-86
2021/11/04 06:35:23;;;;;;;10.77;8.27;;;13.60;76.30;;;;;;5033120;28;20091;-88
2021/11/04 06:37:49;;;;;;;11.95;8.75;;;13.60;76.20;;;;;;5055380;28;20037;-83
2021/11/04 06:40:15;;;;;;;12.60;8.60;;;13.60;76.10;;;;;;5061138;28;20045;-86
2021/11/04 06:42:41;;;;;;;11.82;8.38;;;13.60;76.00;;;;;;5060059;28;20024;-87
2021/11/04 06:45:07;;;;;;;15.38;9.05;;;13.60;76.00;;;;;;5058306;28;20048;-83
2021/11/04 06:47:48;;;;;;;11.18;9.15;;;13.60;76.00;;;;;;5045276;28;20036;-86
2021/11/04 06:50:17;;;;;;;14.00;9.15;;;13.60;75.80;;;;;;5060378;28;20040;-87
2021/11/04 06:53:15;;;;;;;14.70;10.55;;;13.60;75.80;;;;;;5050550;28;20037;-88
2021/11/04 06:55:43;;;;;;;13.88;9.35;;;13.60;75.90;;;;;;5049117;28;20067;-89
2021/11/04 06:58:14;;;;;;;14.13;9.63;;;13.60;76.40;;;;;;5035883;28;20116;-86
2021/11/04 07:00:46;;;;;;;12.85;9.40;;;13.60;75.70;;;;;;5035935;28;20037;-88
2021/11/04 07:03:25;;;;;;;13.18;9.00;;;13.70;75.70;;;;;;5036654;28;20037;-89
2021/11/04 07:06:08;;;;;;;13.50;9.23;;;13.60;75.70;;;;;;5036559;28;20048;-87
2021/11/04 07:08:43;;;;;;;14.07;8.90;;;13.60;75.60;;;;;;5035845;28;20429;-89
2021/11/04 07:11:10;;;;;;;13.30;9.93;;;13.70;75.60;;;;;;5036724;28;20025;-87
2021/11/04 07:13:36;;;;;;;14.90;9.38;;;13.70;75.50;;;;;;5034332;28;20037;-87
2021/11/04 07:16:03;;;;;;;10.60;8.93;;;13.70;75.40;;;;;;5036102;28;20033;-86
2021/11/04 07:18:30;;;;;;;13.95;9.48;;;13.70;75.40;;;;;;5039610;28;20119;-88
2021/11/04 07:21:13;;;;;;;16.98;10.55;;;13.70;75.40;;;;;;5044059;28;20044;-88
2021/11/04 07:23:45;;;;;;;14.18;10.00;;;13.70;75.80;;;;;;5047156;28;20065;-88
2021/11/04 07:26:11;;;;;;;15.90;10.02;;;13.70;76.10;;;;;;5057948;28;20032;-87
2021/11/04 07:28:38;;;;;;;15.50;9.68;;;13.70;76.50;;;;;;5041281;28;20040;-87
2021/11/04 07:31:13;;;;;;;13.90;9.63;;;13.70;76.80;;;;;;5043272;28;20472;-88
2021/11/04 07:33:44;;;;;;;15.90;10.02;;;13.70;76.80;;;;;;5070542;28;20391;-86
2021/11/04 07:36:16;;;;;;;13.48;9.55;;;13.80;76.90;;;;;;5038584;28;20551;-87
2021/11/04 07:38:45;;;;;;;13.18;9.90;;;13.80;77.00;;;;;;5039618;28;20040;-91
2021/11/04 07:41:11;;;;;;;13.15;9.68;;;13.80;77.10;;;;;;5037566;28;20032;-88
2021/11/04 07:43:37;;;;;;;13.80;9.77;;;13.80;77.00;;;;;;5039616;28;20033;-89
2021/11/04 07:46:03;;;;;;;13.02;10.02;;;13.80;77.00;;;;;;5038396;28;20368;-89
2021/11/04 07:48:29;;;;;;;14.55;10.00;;;13.80;77.00;;;;;;5039251;28;20021;-88
2021/11/04 07:50:57;;;;;;;13.70;10.13;;;13.90;77.50;;;;;;5040870;28;20033;-90
2021/11/04 07:53:22;;;;;;;15.02;10.48;;;13.90;77.10;;;;;;5041823;28;20036;-90
2021/11/04 07:55:50;;;;;;;13.65;10.07;;;13.90;76.90;;;;;;5038601;28;20610;-89
2021/11/04 07:58:17;;;;;;;14.63;10.35;;;13.90;76.80;;;;;;5039205;28;20025;-89
2021/11/04 08:00:43;;;;;;;14.40;9.93;;;13.90;76.70;;;;;;5039965;28;20550;-88
2021/11/04 08:03:10;;;;;;;14.13;10.50;;;13.90;76.60;;;;;;5039976;28;20037;-88
2021/11/04 08:05:36;;;;;;;12.05;9.18;;;13.90;76.60;;;;;;5036063;28;20416;-88
2021/11/04 08:08:05;;;;;;;13.10;10.20;;;13.90;76.80;;;;;;5037727;28;20025;-89
2021/11/04 08:10:31;;;;;;;12.82;9.55;;;14.00;76.80;;;;;;5033837;28;20114;-88
2021/11/04 08:13:13;;;;;;;14.10;9.93;;;14.00;76.60;;;;;;5038150;28;20056;-89
2021/11/04 08:15:40;;;;;;;12.70;9.32;;;14.00;76.50;;;;;;5036008;28;20041;-88
2021/11/04 08:18:10;;;;;;;14.98;9.95;;;14.00;76.30;;;;;;5038319;28;20037;-86
2021/11/04 08:20:40;;;;;;;13.13;9.65;;;14.00;76.20;;;;;;5037556;28;20033;-88
2021/11/04 08:23:14;;;;;;;12.13;9.13;;;14.00;76.10;;;;;;5038868;28;20148;-86
2021/11/04 08:25:42;;;;;;;12.73;9.40;;;14.00;76.10;;;;;;5036459;28;20060;-91
2021/11/04 08:28:09;;;;;;;12.23;9.65;;;14.00;76.00;;;;;;5035016;28;20385;-89
2021/11/04 08:30:36;;;;;;;15.45;9.25;;;14.00;75.90;;;;;;5038575;28;20036;-90
2021/11/04 08:33:02;;;;;;;12.95;9.40;;;14.00;75.70;;;;;;5038711;28;20039;-89
2021/11/04 08:35:29;;;;;;;12.32;8.55;;;14.00;75.60;;;;;;5034465;28;20038;-89
2021/11/04 08:37:55;;;;;;;13.25;9.65;;;14.00;75.50;;;;;;5039125;28;20044;-89
2021/11/04 08:40:21;;;;;;;12.13;9.07;;;14.00;75.20;;;;;;5034357;28;20091;-87
2021/11/04 08:42:47;;;;;;;12.77;9.10;;;14.10;75.10;;;;;;5035630;28;20032;-89
2021/11/04 08:45:14;;;;;;;12.15;8.18;;;14.00;74.80;;;;;;5048719;28;20492;-88
2021/11/04 08:47:40;;;;;;;14.13;8.77;;;14.10;74.60;;;;;;5048067;28;20423;-88
2021/11/04 08:50:11;;;;;;;11.27;7.70;;;14.10;74.40;;;;;;5013381;28;20033;-88
2021/11/04 08:52:37;;;;;;;11.70;8.27;;;14.10;74.20;;;;;;5034270;28;20056;-87
2021/11/04 08:55:05;;;;;;;10.82;8.48;;;14.10;74.00;;;;;;5036016;28;20028;-90
2021/11/04 08:57:31;;;;;;;19.70;8.55;;;14.10;74.10;;;;;;5017840;28;20033;-91
2021/11/04 08:59:57;;;;;;;11.57;8.45;;;14.10;74.20;;;;;;5032456;28;20443;-90
2021/11/04 09:02:25;;;;;;;11.32;8.35;;;14.10;74.20;;;;;;5028521;28;20046;-86
2021/11/04 09:04:52;;;;;;;12.77;8.38;;;14.20;74.00;;;;;;5011400;28;20522;-88
2021/11/04 09:07:21;;;;;;;11.95;8.10;;;14.20;74.00;;;;;;5036141;28;20041;-88
2021/11/04 09:09:48;;;;;;;12.02;8.38;;;14.20;73.70;;;;;;5034991;28;20415;-86
2021/11/04 09:12:15;;;;;;;12.48;8.38;;;14.30;73.80;;;;;;5034862;28;20040;-88
2021/11/04 09:14:42;;;;;;;12.50;7.93;;;14.30;73.60;;;;;;5037203;28;20035;-88
2021/11/04 09:17:09;;;;;;;14.43;7.65;;;14.40;73.70;;;;;;5035482;28;20049;-86
2021/11/04 09:19:35;;;;;;;11.10;8.05;;;14.40;73.40;;;;;;5037150;28;20037;-88
2021/11/04 09:22:01;;;;;;;10.32;7.82;;;14.40;73.40;;;;;;5036594;28;20195;-87
2021/11/04 09:24:28;;;;;;;9.93;7.57;;;14.40;73.40;;;;;;5037201;28;20172;-84
2021/11/04 09:26:55;;;;;;;10.77;8.13;;;14.40;73.30;;;;;;5036485;28;20030;-87
2021/11/04 09:29:21;;;;;;;11.68;7.43;;;14.50;73.10;;;;;;5035482;28;20030;-87
2021/11/04 09:31:48;;;;;;;9.55;7.53;;;14.50;72.80;;;;;;5016587;28;20044;-83
2021/11/04 09:34:18;;;;;;;12.93;8.70;;;14.50;72.90;;;;;;5041646;28;20029;-86
2021/11/04 09:36:47;;;;;;;10.23;7.35;;;14.50;73.00;;;;;;5038601;28;20054;-88
2021/11/04 09:39:13;;;;;;;10.95;7.65;;;14.60;72.80;;;;;;5020615;28;20404;-86
2021/11/04 09:41:41;;;;;;;10.65;7.13;;;14.60;72.90;;;;;;5037767;28;20041;-87
2021/11/04 09:44:08;;;;;;;11.73;7.45;;;14.60;72.70;;;;;;5036713;28;20038;-87
2021/11/04 09:46:35;;;;;;;12.10;7.90;;;14.60;72.70;;;;;;5036796;28;20128;-85
2021/11/04 09:49:01;;;;;;;13.60;7.40;;;14.60;72.50;;;;;;5036368;28;20043;-87
2021/11/04 09:51:27;;;;;;;9.63;7.65;;;14.60;72.30;;;;;;5038016;28;21387;-84
2021/11/04 09:53:53;;;;;;;8.90;7.03;;;14.60;72.20;;;;;;5035485;28;20111;-86
2021/11/04 09:56:19;;;;;;;9.85;6.38;;;14.70;72.00;;;;;;5037077;28;20128;-87
2021/11/04 09:58:46;;;;;;;9.35;6.90;;;14.60;71.70;;;;;;5037036;28;20593;-86
2021/11/04 10:01:28;;;;;;;10.45;6.95;;;14.60;71.50;;;;;;5035228;28;20124;-86
2021/11/04 10:03:59;;;;;;;9.48;6.53;;;14.70;71.40;;;;;;5035007;28;20079;-86
2021/11/04 10:06:34;;;;;;;8.57;6.18;;;14.70;71.30;;;;;;5034640;28;20025;-86
2021/11/04 10:09:12;;;;;;;9.60;6.37;;;14.70;71.20;;;;;;5023220;28;20072;-85
2021/11/04 10:11:44;;;;;;;8.40;6.75;;;14.70;71.10;;;;;;5037068;28;20029;-87
2021/11/04 10:14:13;;;;;;;9.65;6.55;;;14.70;71.10;;;;;;5051450;28;20124;-86
2021/11/04 10:16:40;;;;;;;9.30;6.93;;;14.70;71.10;;;;;;5036650;28;20045;-87
2021/11/04 10:19:12;;;;;;;9.88;6.95;;;14.70;71.10;;;;;;5035632;28;20745;-87
2021/11/04 10:21:46;;;;;;;7.20;5.88;;;14.70;70.90;;;;;;5036259;28;20496;-86
2021/11/04 10:24:23;;;;;;;8.50;6.75;;;14.60;70.80;;;;;;5037149;28;20033;-87
2021/11/04 10:26:54;;;;;;;10.70;6.60;;;14.60;70.80;;;;;;5035538;28;20108;-86
2021/11/04 10:29:21;;;;;;;8.35;6.45;;;14.70;70.70;;;;;;5024598;28;20114;-86
2021/11/04 10:31:54;;;;;;;8.88;6.50;;;14.70;70.70;;;;;;5036565;28;20040;-84
2021/11/04 10:34:29;;;;;;;7.75;6.35;;;14.70;70.70;;;;;;5034579;28;20033;-85
2021/11/04 10:37:13;;;;;;;7.72;6.03;;;14.60;70.60;;;;;;5036926;28;20032;-84
2021/11/04 10:39:42;;;;;;;7.32;6.35;;;14.70;70.50;;;;;;5034561;28;20041;-84
2021/11/04 10:42:08;;;;;;;10.02;5.75;;;14.60;70.50;;;;;;5035419;28;20037;-87
2021/11/04 10:44:35;;;;;;;9.27;5.72;;;14.60;70.30;;;;;;5022620;28;20033;-85
2021/11/04 10:47:01;;;;;;;8.52;5.78;;;14.60;70.20;;;;;;5035347;28;20032;-86
2021/11/04 10:49:43;;;;;;;9.00;5.90;;;14.70;70.40;;;;;;5036694;28;21583;-85
2021/11/04 10:52:10;;;;;;;6.22;5.32;;;14.70;70.30;;;;;;5034608;28;20060;-84
2021/11/04 10:54:52;;;;;;;8.15;5.93;;;14.70;70.30;;;;;;5035168;28;20037;-85
2021/11/04 10:57:41;;;;;;;9.93;5.88;;;14.70;70.20;;;;;;5051442;28;20033;-86
2021/11/04 11:00:23;;;;;;;7.13;4.97;;;14.70;70.20;;;;;;5036246;28;20041;-83
2021/11/04 11:03:01;;;;;;;7.40;5.57;;;14.70;70.20;;;;;;5039364;28;20083;-86
2021/11/04 11:05:33;;;;;;;8.50;5.47;;;14.70;70.20;;;;;;5035994;28;20041;-85
2021/11/04 11:08:00;;;;;;;8.57;6.28;;;14.70;70.00;;;;;;5068642;28;20040;-86
2021/11/04 11:10:25;;;;;;;6.55;5.32;;;14.70;69.70;;;;;;5035819;28;20033;-86
2021/11/04 11:12:51;;;;;;;10.52;5.72;;;14.80;69.80;;;;;;5035405;28;20028;-87
2021/11/04 11:15:18;;;;;;;8.40;5.82;;;14.70;69.60;;;;;;5034701;28;20036;-86
2021/11/04 11:17:48;;;;;;;7.75;5.43;;;14.80;69.70;;;;;;5035040;28;20036;-87
2021/11/04 11:20:16;;;;;;;7.38;4.90;;;14.80;69.50;;;;;;5035362;28;20040;-86
2021/11/04 11:22:43;;;;;;;7.35;4.93;;;14.80;69.30;;;;;;5035103;28;20415;-86
2021/11/04 11:25:09;;;;;;;6.47;4.60;;;14.80;69.30;;;;;;5034162;28;20096;-85
2021/11/04 11:27:36;;;;;;;5.60;4.18;;;14.80;69.00;;;;;;5034511;28;20034;-87
2021/11/04 11:30:08;;;;;;;7.05;4.95;;;14.80;68.90;;;;;;5034750;28;20476;-86
2021/11/04 11:32:34;;;;;;;8.50;4.43;;;14.80;68.50;;;;;;5035423;28;20119;-86
2021/11/04 11:35:16;;;;;;;9.70;4.65;;;14.80;68.60;;;;;;5034255;28;20128;-85
2021/11/04 11:37:55;;;;;;;6.72;4.47;;;14.90;68.50;;;;;;5035247;28;20096;-86
2021/11/04 11:40:25;;;;;;;7.30;4.30;;;14.90;68.50;;;;;;5032650;28;20083;-85
2021/11/04 11:43:04;;;;;;;6.65;4.60;;;14.90;68.50;;;;;;5033851;28;20508;-85
2021/11/04 11:45:36;;;;;;;8.88;4.75;;;14.80;68.40;;;;;;5035142;28;20037;-86
2021/11/04 11:48:21;;;;;;;9.18;4.43;;;14.90;68.40;;;;;;5034818;28;20183;-86
2021/11/04 11:50:53;;;;;;;7.45;4.70;;;14.90;68.70;;;;;;5033591;28;20025;-83
2021/11/04 11:53:37;;;;;;;10.45;4.88;;;14.90;68.50;;;;;;5033546;28;20038;-85
2021/11/04 11:56:06;;;;;;;5.82;4.30;;;14.90;68.60;;;;;;5035916;28;20044;-85
2021/11/04 11:58:47;;;;;;;5.78;4.90;;;14.90;68.60;;;;;;5010227;28;20029;-86
2021/11/04 12:01:18;;;;;;;8.13;4.80;;;14.90;68.70;;;;;;5038450;28;20112;-85
2021/11/04 12:03:49;;;;;;;7.10;4.68;;;14.90;68.70;;;;;;5024594;28;20041;-85
2021/11/04 12:06:15;;;;;;;6.65;4.80;;;14.90;68.60;;;;;;5032690;28;20041;-85
2021/11/04 12:08:57;;;;;;;7.05;4.57;;;14.90;68.80;;;;;;5019147;28;20489;-85
2021/11/04 12:11:36;;;;;;;8.48;4.20;;;14.90;69.50;;;;;;5036085;28;20031;-84
2021/11/04 12:14:36;;;;;;;6.85;4.57;;;14.90;69.50;;;;;;5019306;28;20034;-85
2021/11/04 12:17:02;;;;;;;6.82;4.15;;;14.90;69.40;;;;;;5034754;28;20065;-85
2021/11/04 12:19:54;;;;;;;8.98;5.00;;;14.90;69.00;;;;;;5042877;28;20511;-85
2021/11/04 12:22:28;;;;;;;6.50;4.85;;;14.90;68.60;;;;;;5024617;28;20072;-85
2021/11/04 12:25:07;;;;;;;7.68;4.72;;;14.90;68.30;;;;;;5039106;28;20056;-85
2021/11/04 12:27:37;;;;;;;8.95;4.70;;;14.90;68.40;;;;;;5034008;28;20095;-85
2021/11/04 12:30:14;;;;;;;7.75;5.20;;;14.90;68.50;;;;;;5039491;28;20164;-85
2021/11/04 12:32:41;;;;;;;8.00;5.40;;;14.90;68.90;;;;;;5048527;28;20354;-85
2021/11/04 12:35:07;;;;;;;8.38;5.22;;;14.90;69.10;;;;;;5036185;28;20033;-85
2021/11/04 12:37:34;;;;;;;8.40;5.50;;;14.90;69.20;;;;;;5051564;28;20106;-85
2021/11/04 12:40:07;;;;;;;8.50;5.93;;;14.90;69.30;;;;;;5038080;28;20044;-85
2021/11/04 12:42:32;;;;;;;10.50;6.20;;;14.90;69.50;;;;;;5040354;28;20030;-84
2021/11/04 12:44:58;;;;;;;7.95;5.70;;;14.90;69.80;;;;;;5038808;28;20044;-85
2021/11/04 12:47:26;;;;;;;8.35;5.15;;;14.90;69.90;;;;;;5039901;28;20037;-85
2021/11/04 12:49:53;;;;;;;7.82;5.57;;;14.90;70.10;;;;;;5035589;28;20491;-84